www.cux-wetter.de
Wetterdaten: Donnerstag, 24.12.2015
Datum Zeit Temp. A. Feuchte A. Luftdruck Regen Wind Richtung Richtung Sonnenschein Solar Taupunkt Windchill Windben
24.12.2015 00:00 6,7 C 90 % 1022,3 hPa 0,0 l/m 11,3 km/h (2 Bft) SW 225 0 min 0 W/m 5,2 C 3,1 C 19,3 km/h (3 Bft)
24.12.2015 00:15 6,8 C 90 % 1022,4 hPa 0,0 l/m 11,3 km/h (2 Bft) S-SW 202 0 min 0 W/m 5,3 C 3,2 C 22,5 km/h (4 Bft)
24.12.2015 00:30 6,7 C 91 % 1022,4 hPa 0,0 l/m 9,7 km/h (2 Bft) S 180 0 min 0 W/m 5,3 C 4,2 C 20,9 km/h (4 Bft)
24.12.2015 00:45 6,6 C 91 % 1022,3 hPa 0,0 l/m 9,7 km/h (2 Bft) S 180 0 min 0 W/m 5,2 C 4,0 C 17,7 km/h (3 Bft)
24.12.2015 01:00 6,4 C 92 % 1022,3 hPa 0,0 l/m 9,7 km/h (2 Bft) S 180 0 min 0 W/m 5,2 C 3,8 C 19,3 km/h (3 Bft)
24.12.2015 01:15 6,6 C 92 % 1022,1 hPa 0,0 l/m 9,7 km/h (2 Bft) SW 225 0 min 0 W/m 5,4 C 4,0 C 19,3 km/h (3 Bft)
24.12.2015 01:30 6,7 C 92 % 1021,9 hPa 0,0 l/m 9,7 km/h (2 Bft) S 180 0 min 0 W/m 5,5 C 4,2 C 24,1 km/h (4 Bft)
24.12.2015 01:45 6,7 C 92 % 1021,7 hPa 0,0 l/m 9,7 km/h (2 Bft) S 180 0 min 0 W/m 5,5 C 4,2 C 17,7 km/h (3 Bft)
24.12.2015 02:00 6,7 C 92 % 1021,6 hPa 0,0 l/m 9,7 km/h (2 Bft) S 180 0 min 0 W/m 5,5 C 4,2 C 17,7 km/h (3 Bft)
24.12.2015 02:15 6,6 C 93 % 1021,6 hPa 0,0 l/m 9,7 km/h (2 Bft) S 180 0 min 0 W/m 5,6 C 4,0 C 16,1 km/h (3 Bft)
24.12.2015 02:30 6,6 C 93 % 1021,5 hPa 0,0 l/m 11,3 km/h (2 Bft) S 180 0 min 0 W/m 5,6 C 3,0 C 19,3 km/h (3 Bft)
24.12.2015 02:45 6,7 C 93 % 1021,4 hPa 0,0 l/m 11,3 km/h (2 Bft) S 180 0 min 0 W/m 5,6 C 3,1 C 19,3 km/h (3 Bft)
24.12.2015 03:00 6,7 C 94 % 1021,5 hPa 0,0 l/m 11,3 km/h (2 Bft) S 180 0 min 0 W/m 5,8 C 3,1 C 20,9 km/h (4 Bft)
24.12.2015 03:15 6,8 C 93 % 1021,4 hPa 0,0 l/m 11,3 km/h (2 Bft) S 180 0 min 0 W/m 5,7 C 3,2 C 19,3 km/h (3 Bft)
24.12.2015 03:30 6,8 C 93 % 1021,2 hPa 0,0 l/m 11,3 km/h (2 Bft) S 180 0 min 0 W/m 5,7 C 3,2 C 19,3 km/h (3 Bft)
24.12.2015 03:45 6,8 C 94 % 1021,1 hPa 0,0 l/m 9,7 km/h (2 Bft) S 180 0 min 0 W/m 5,9 C 4,3 C 20,9 km/h (4 Bft)
24.12.2015 04:00 7,0 C 94 % 1021,0 hPa 0,0 l/m 9,7 km/h (2 Bft) S 180 0 min 0 W/m 6,1 C 4,5 C 22,5 km/h (4 Bft)
24.12.2015 04:15 7,0 C 94 % 1020,8 hPa 0,0 l/m 8,0 km/h (2 Bft) S-SO 157 0 min 0 W/m 6,1 C 5,7 C 20,9 km/h (4 Bft)
24.12.2015 04:30 6,9 C 94 % 1020,6 hPa 0,0 l/m 8,0 km/h (2 Bft) S-SO 157 0 min 0 W/m 6,0 C 5,6 C 22,5 km/h (4 Bft)
24.12.2015 04:45 7,3 C 94 % 1020,6 hPa 0,0 l/m 11,3 km/h (2 Bft) S 180 0 min 0 W/m 6,4 C 3,8 C 22,5 km/h (4 Bft)
24.12.2015 05:00 7,3 C 93 % 1020,5 hPa 0,0 l/m 8,0 km/h (2 Bft) S-SO 157 0 min 0 W/m 6,2 C 6,0 C 20,9 km/h (4 Bft)
24.12.2015 05:15 7,2 C 93 % 1020,4 hPa 0,0 l/m 9,7 km/h (2 Bft) S 180 0 min 0 W/m 6,1 C 4,7 C 24,1 km/h (4 Bft)
24.12.2015 05:30 7,2 C 93 % 1020,0 hPa 0,0 l/m 9,7 km/h (2 Bft) S 180 0 min 0 W/m 6,1 C 4,7 C 20,9 km/h (4 Bft)
24.12.2015 05:45 7,2 C 93 % 1019,8 hPa 0,0 l/m 9,7 km/h (2 Bft) S 180 0 min 0 W/m 6,1 C 4,7 C 19,3 km/h (3 Bft)
24.12.2015 06:00 7,1 C 93 % 1019,6 hPa 0,0 l/m 11,3 km/h (2 Bft) S 180 0 min 0 W/m 6,0 C 3,6 C 22,5 km/h (4 Bft)
24.12.2015 06:15 7,1 C 93 % 1019,5 hPa 0,0 l/m 11,3 km/h (2 Bft) S 180 0 min 0 W/m 6,0 C 3,6 C 25,7 km/h (4 Bft)
24.12.2015 06:30 7,1 C 93 % 1019,4 hPa 0,0 l/m 12,9 km/h (3 Bft) S 180 0 min 0 W/m 6,0 C 2,7 C 30,6 km/h (5 Bft)
24.12.2015 06:45 7,1 C 93 % 1019,3 hPa 0,0 l/m 14,5 km/h (3 Bft) S 180 0 min 0 W/m 6,0 C 1,9 C 32,2 km/h (5 Bft)
24.12.2015 07:00 7,1 C 93 % 1019,2 hPa 0,0 l/m 14,5 km/h (3 Bft) S 180 0 min 0 W/m 6,0 C 1,9 C 32,2 km/h (5 Bft)
24.12.2015 07:15 7,1 C 93 % 1019,1 hPa 0,0 l/m 14,5 km/h (3 Bft) S 180 0 min 0 W/m 6,0 C 1,9 C 29,0 km/h (5 Bft)
24.12.2015 07:30 7,1 C 92 % 1019,0 hPa 0,0 l/m 12,9 km/h (3 Bft) S 180 0 min 0 W/m 5,9 C 2,7 C 25,7 km/h (4 Bft)
24.12.2015 07:45 7,1 C 92 % 1018,8 hPa 0,0 l/m 12,9 km/h (3 Bft) S 180 0 min 0 W/m 5,9 C 2,7 C 25,7 km/h (4 Bft)
24.12.2015 08:00 7,0 C 92 % 1018,6 hPa 0,0 l/m 14,5 km/h (3 Bft) S 180 0 min 0 W/m 5,8 C 1,7 C 25,7 km/h (4 Bft)
24.12.2015 08:15 6,9 C 92 % 1018,5 hPa 0,0 l/m 12,9 km/h (3 Bft) S 180 0 min 0 W/m 5,7 C 2,4 C 27,4 km/h (5 Bft)
24.12.2015 08:30 6,9 C 92 % 1018,5 hPa 0,0 l/m 12,9 km/h (3 Bft) S 180 0 min 0 W/m 5,7 C 2,4 C 27,4 km/h (5 Bft)
24.12.2015 08:45 6,9 C 92 % 1018,5 hPa 0,0 l/m 11,3 km/h (2 Bft) S 180 0 min 5 W/m 5,7 C 3,4 C 27,4 km/h (5 Bft)
24.12.2015 09:00 6,8 C 92 % 1018,2 hPa 0,0 l/m 8,0 km/h (2 Bft) S 180 0 min 9 W/m 5,6 C 5,5 C 20,9 km/h (4 Bft)
24.12.2015 09:15 6,8 C 91 % 1018,0 hPa 0,0 l/m 8,0 km/h (2 Bft) S 180 0 min 18 W/m 5,4 C 5,5 C 19,3 km/h (3 Bft)
24.12.2015 09:30 6,8 C 92 % 1018,0 hPa 0,0 l/m 9,7 km/h (2 Bft) S-SO 157 15 min 35 W/m 5,6 C 4,3 C 20,9 km/h (4 Bft)
24.12.2015 09:45 6,9 C 92 % 1017,9 hPa 0,0 l/m 11,3 km/h (2 Bft) S-SO 157 15 min 40 W/m 5,7 C 3,4 C 22,5 km/h (4 Bft)
24.12.2015 10:00 7,1 C 91 % 1017,7 hPa 0,0 l/m 11,3 km/h (2 Bft) S-SO 157 0 min 42 W/m 5,7 C 3,6 C 22,5 km/h (4 Bft)
24.12.2015 10:15 6,8 C 91 % 1017,6 hPa 0,0 l/m 11,3 km/h (2 Bft) SO 135 15 min 58 W/m 5,4 C 3,2 C 24,1 km/h (4 Bft)
24.12.2015 10:30 6,6 C 92 % 1017,2 hPa 0,0 l/m 11,3 km/h (2 Bft) SO 135 0 min 49 W/m 5,4 C 3,0 C 22,5 km/h (4 Bft)
24.12.2015 10:45 7,2 C 92 % 1017,1 hPa 0,0 l/m 11,3 km/h (2 Bft) S-SO 157 0 min 58 W/m 6,0 C 3,7 C 30,6 km/h (5 Bft)
24.12.2015 11:00 7,8 C 90 % 1017,0 hPa 0,0 l/m 12,9 km/h (3 Bft) S 180 0 min 47 W/m 6,3 C 3,5 C 30,6 km/h (5 Bft)
24.12.2015 11:15 8,1 C 89 % 1016,5 hPa 0,0 l/m 14,5 km/h (3 Bft) S 180 0 min 53 W/m 6,4 C 3,1 C 27,4 km/h (5 Bft)
24.12.2015 11:30 8,3 C 89 % 1016,2 hPa 0,0 l/m 14,5 km/h (3 Bft) S 180 15 min 95 W/m 6,6 C 3,3 C 27,4 km/h (5 Bft)
24.12.2015 11:45 8,6 C 88 % 1016,1 hPa 0,0 l/m 12,9 km/h (3 Bft) S-SO 157 15 min 125 W/m 6,7 C 4,4 C 24,1 km/h (4 Bft)
24.12.2015 12:00 8,8 C 88 % 1015,8 hPa 0,0 l/m 12,9 km/h (3 Bft) S 180 15 min 132 W/m 6,9 C 4,7 C 25,7 km/h (4 Bft)
24.12.2015 12:15 9,2 C 87 % 1015,4 hPa 0,0 l/m 11,3 km/h (2 Bft) S-SO 157 15 min 146 W/m 7,2 C 6,0 C 20,9 km/h (4 Bft)
24.12.2015 12:30 9,2 C 87 % 1015,1 hPa 0,0 l/m 11,3 km/h (2 Bft) S-SO 157 15 min 137 W/m 7,2 C 6,0 C 25,7 km/h (4 Bft)
24.12.2015 12:45 9,6 C 87 % 1014,6 hPa 0,0 l/m 12,9 km/h (3 Bft) S 180 0 min 84 W/m 7,5 C 5,6 C 27,4 km/h (5 Bft)
24.12.2015 13:00 9,9 C 86 % 1014,5 hPa 0,0 l/m 14,5 km/h (3 Bft) S 180 0 min 79 W/m 7,7 C 5,2 C 33,8 km/h (5 Bft)
24.12.2015 13:15 10,1 C 86 % 1014,3 hPa 0,0 l/m 14,5 km/h (3 Bft) S 180 0 min 69 W/m 7,9 C 5,5 C 25,7 km/h (4 Bft)
24.12.2015 13:30 10,3 C 86 % 1014,1 hPa 0,0 l/m 16,1 km/h (3 Bft) S 180 0 min 46 W/m 8,1 C 5,1 C 32,2 km/h (5 Bft)
24.12.2015 13:45 10,3 C 87 % 1013,9 hPa 0,0 l/m 16,1 km/h (3 Bft) S 180 0 min 26 W/m 8,2 C 5,1 C 32,2 km/h (5 Bft)
24.12.2015 14:00 10,2 C 89 % 1013,7 hPa 0,0 l/m 16,1 km/h (3 Bft) S 180 0 min 26 W/m 8,5 C 4,9 C 29,0 km/h (5 Bft)
24.12.2015 14:15 10,2 C 90 % 1013,3 hPa 0,0 l/m 14,5 km/h (3 Bft) S 180 0 min 40 W/m 8,6 C 5,6 C 27,4 km/h (5 Bft)
24.12.2015 14:30 10,4 C 90 % 1013,3 hPa 0,0 l/m 14,5 km/h (3 Bft) S 180 0 min 40 W/m 8,8 C 5,8 C 30,6 km/h (5 Bft)
24.12.2015 14:45 10,6 C 89 % 1012,8 hPa 0,0 l/m 16,1 km/h (3 Bft) S 180 0 min 33 W/m 8,9 C 5,4 C 33,8 km/h (5 Bft)
24.12.2015 15:00 10,7 C 88 % 1012,6 hPa 0,0 l/m 16,1 km/h (3 Bft) S 180 0 min 30 W/m 8,8 C 5,5 C 30,6 km/h (5 Bft)
24.12.2015 15:15 10,8 C 88 % 1012,5 hPa 0,0 l/m 16,1 km/h (3 Bft) S 180 0 min 21 W/m 8,9 C 5,7 C 33,8 km/h (5 Bft)
24.12.2015 15:30 10,9 C 87 % 1012,5 hPa 0,0 l/m 16,1 km/h (3 Bft) S 180 0 min 12 W/m 8,8 C 5,8 C 30,6 km/h (5 Bft)
24.12.2015 15:39 11,0 C 87 % 1012,3 hPa 0,0 l/m 13,4 km/h (3 Bft) S 172 0 min 7 W/m 8,9 C 7,0 C 17,7 km/h (3 Bft)
24.12.2015 15:42 11,0 C 87 % 1012,3 hPa 0,0 l/m 16,4 km/h (3 Bft) S-SO 156 0 min 5 W/m 8,9 C 5,8 C 25,7 km/h (4 Bft)
24.12.2015 15:45 11,0 C 87 % 1012,3 hPa 0,0 l/m 18,1 km/h (3 Bft) SW 219 0 min 0 W/m 8,9 C 5,2 C 25,7 km/h (4 Bft)
24.12.2015 15:48 11,1 C 87 % 1012,2 hPa 0,0 l/m 15,4 km/h (3 Bft) S-SW 195 0 min 0 W/m 9,0 C 6,3 C 25,7 km/h (4 Bft)
24.12.2015 15:51 11,1 C 87 % 1012,2 hPa 0,0 l/m 17,3 km/h (3 Bft) S 172 0 min 0 W/m 9,0 C 5,6 C 29,0 km/h (5 Bft)
24.12.2015 15:54 11,1 C 87 % 1012,1 hPa 0,0 l/m 14,3 km/h (3 Bft) S 179 0 min 0 W/m 9,0 C 6,8 C 32,2 km/h (5 Bft)
24.12.2015 15:57 11,1 C 87 % 1012,1 hPa 0,0 l/m 15,6 km/h (3 Bft) S-SO 148 0 min 0 W/m 9,0 C 6,2 C 24,1 km/h (4 Bft)
24.12.2015 16:00 11,2 C 87 % 1012,2 hPa 0,0 l/m 17,1 km/h (3 Bft) S 180 0 min 0 W/m 9,1 C 5,8 C 30,6 km/h (5 Bft)
24.12.2015 16:03 11,2 C 87 % 1012,0 hPa 0,0 l/m 14,7 km/h (3 Bft) S-SO 168 0 min 0 W/m 9,1 C 6,7 C 33,8 km/h (5 Bft)
24.12.2015 16:06 11,2 C 87 % 1012,0 hPa 0,0 l/m 18,7 km/h (3 Bft) S 190 0 min 0 W/m 9,1 C 5,3 C 32,2 km/h (5 Bft)
24.12.2015 16:09 11,2 C 87 % 1012,1 hPa 0,0 l/m 11,7 km/h (2 Bft) SW 218 0 min 0 W/m 9,1 C 8,0 C 22,5 km/h (4 Bft)
24.12.2015 16:12 11,2 C 87 % 1012,2 hPa 0,0 l/m 14,2 km/h (3 Bft) S-SW 213 0 min 0 W/m 9,1 C 6,9 C 22,5 km/h (4 Bft)
24.12.2015 16:15 11,1 C 87 % 1012,0 hPa 0,0 l/m 14,5 km/h (3 Bft) S 180 0 min 0 W/m 9,0 C 6,7 C 33,8 km/h (5 Bft)
24.12.2015 16:18 11,2 C 87 % 1012,0 hPa 0,0 l/m 17,8 km/h (3 Bft) S 179 0 min 0 W/m 9,1 C 5,6 C 29,0 km/h (5 Bft)
24.12.2015 16:21 11,2 C 87 % 1012,1 hPa 0,0 l/m 17,1 km/h (3 Bft) S 175 0 min 0 W/m 9,1 C 5,8 C 30,6 km/h (5 Bft)
24.12.2015 16:24 11,2 C 87 % 1012,0 hPa 0,0 l/m 15,9 km/h (3 Bft) S-SO 168 0 min 0 W/m 9,1 C 6,2 C 25,7 km/h (4 Bft)
24.12.2015 16:27 11,2 C 87 % 1012,0 hPa 0,0 l/m 15,6 km/h (3 Bft) S 188 0 min 0 W/m 9,1 C 6,4 C 24,1 km/h (4 Bft)
24.12.2015 16:30 11,2 C 87 % 1012,0 hPa 0,0 l/m 15,3 km/h (3 Bft) SO 135 0 min 0 W/m 9,1 C 6,5 C 25,7 km/h (4 Bft)
24.12.2015 16:33 11,2 C 87 % 1011,9 hPa 0,0 l/m 14,1 km/h (3 Bft) SW 234 0 min 0 W/m 9,1 C 7,0 C 24,1 km/h (4 Bft)
24.12.2015 16:36 11,2 C 87 % 1011,9 hPa 0,0 l/m 17,3 km/h (3 Bft) SW 229 0 min 0 W/m 9,1 C 5,7 C 33,8 km/h (5 Bft)
24.12.2015 16:39 11,3 C 87 % 1011,9 hPa 0,0 l/m 15,4 km/h (3 Bft) S-SW 212 0 min 0 W/m 9,2 C 6,6 C 25,7 km/h (4 Bft)
24.12.2015 16:42 11,3 C 87 % 1011,8 hPa 0,0 l/m 15,3 km/h (3 Bft) S 178 0 min 0 W/m 9,2 C 6,6 C 25,7 km/h (4 Bft)
24.12.2015 16:45 11,3 C 86 % 1011,8 hPa 0,0 l/m 15,4 km/h (3 Bft) S-SO 151 0 min 0 W/m 9,0 C 6,6 C 29,0 km/h (5 Bft)
24.12.2015 16:48 11,3 C 87 % 1011,8 hPa 0,0 l/m 18,3 km/h (3 Bft) S 183 0 min 0 W/m 9,2 C 5,5 C 29,0 km/h (5 Bft)
24.12.2015 16:51 11,4 C 86 % 1011,7 hPa 0,0 l/m 17,1 km/h (3 Bft) S-SO 168 0 min 0 W/m 9,1 C 6,0 C 27,4 km/h (5 Bft)
24.12.2015 16:54 11,4 C 86 % 1011,6 hPa 0,0 l/m 14,6 km/h (3 Bft) S 189 0 min 0 W/m 9,1 C 7,0 C 27,4 km/h (5 Bft)
24.12.2015 16:57 11,4 C 86 % 1011,6 hPa 0,0 l/m 16,8 km/h (3 Bft) SW 219 0 min 0 W/m 9,1 C 6,2 C 30,6 km/h (5 Bft)
24.12.2015 17:00 11,4 C 86 % 1011,5 hPa 0,0 l/m 17,1 km/h (3 Bft) S 186 0 min 0 W/m 9,1 C 6,0 C 27,4 km/h (5 Bft)
24.12.2015 17:03 11,4 C 86 % 1011,5 hPa 0,0 l/m 17,8 km/h (3 Bft) S-SO 153 0 min 0 W/m 9,1 C 5,8 C 32,2 km/h (5 Bft)
24.12.2015 17:06 11,5 C 85 % 1011,4 hPa 0,0 l/m 15,7 km/h (3 Bft) S-SO 163 0 min 0 W/m 9,1 C 6,7 C 27,4 km/h (5 Bft)
24.12.2015 17:09 11,6 C 85 % 1011,4 hPa 0,0 l/m 17,4 km/h (3 Bft) W-SW 240 0 min 0 W/m 9,2 C 6,2 C 27,4 km/h (5 Bft)
24.12.2015 17:12 11,6 C 85 % 1011,4 hPa 0,0 l/m 18,6 km/h (3 Bft) S 173 0 min 0 W/m 9,2 C 5,8 C 32,2 km/h (5 Bft)
24.12.2015 17:15 11,6 C 85 % 1011,3 hPa 0,0 l/m 16,1 km/h (3 Bft) SW 227 0 min 0 W/m 9,2 C 6,7 C 30,6 km/h (5 Bft)
24.12.2015 17:18 11,7 C 85 % 1011,3 hPa 0,0 l/m 18,1 km/h (3 Bft) S 171 0 min 0 W/m 9,3 C 6,1 C 35,4 km/h (5 Bft)
24.12.2015 17:21 11,7 C 84 % 1011,3 hPa 0,0 l/m 19,2 km/h (3 Bft) S-SO 163 0 min 0 W/m 9,1 C 5,7 C 30,6 km/h (5 Bft)
24.12.2015 17:24 11,8 C 84 % 1011,3 hPa 0,0 l/m 17,4 km/h (3 Bft) S 184 0 min 0 W/m 9,2 C 6,4 C 29,0 km/h (5 Bft)
24.12.2015 17:27 11,8 C 84 % 1011,3 hPa 0,0 l/m 21,4 km/h (4 Bft) S-SW 209 0 min 0 W/m 9,2 C 5,2 C 37,0 km/h (5 Bft)
24.12.2015 17:30 11,9 C 84 % 1011,3 hPa 0,0 l/m 16,6 km/h (3 Bft) S 176 0 min 0 W/m 9,3 C 6,8 C 27,4 km/h (5 Bft)
24.12.2015 17:33 11,9 C 83 % 1011,4 hPa 0,0 l/m 16,9 km/h (3 Bft) S 176 0 min 0 W/m 9,1 C 6,7 C 29,0 km/h (5 Bft)
24.12.2015 17:36 11,9 C 83 % 1011,3 hPa 0,0 l/m 18,1 km/h (3 Bft) S-SO 160 0 min 0 W/m 9,1 C 6,3 C 33,8 km/h (5 Bft)
24.12.2015 17:39 11,9 C 83 % 1011,2 hPa 0,0 l/m 18,4 km/h (3 Bft) SO 144 0 min 0 W/m 9,1 C 6,2 C 25,7 km/h (4 Bft)
24.12.2015 17:42 11,9 C 83 % 1011,2 hPa 0,0 l/m 18,3 km/h (3 Bft) S 175 0 min 0 W/m 9,1 C 6,3 C 30,6 km/h (5 Bft)
24.12.2015 17:45 11,9 C 83 % 1011,3 hPa 0,0 l/m 14,9 km/h (3 Bft) S 176 0 min 0 W/m 9,1 C 7,5 C 30,6 km/h (5 Bft)
24.12.2015 17:48 11,9 C 83 % 1011,3 hPa 0,0 l/m 16,9 km/h (3 Bft) S 175 0 min 0 W/m 9,1 C 6,7 C 32,2 km/h (5 Bft)
24.12.2015 17:51 11,9 C 83 % 1011,3 hPa 0,0 l/m 16,0 km/h (3 Bft) S-SO 159 0 min 0 W/m 9,1 C 7,1 C 27,4 km/h (5 Bft)
24.12.2015 17:54 11,9 C 83 % 1011,3 hPa 0,0 l/m 17,0 km/h (3 Bft) S 171 0 min 0 W/m 9,1 C 6,7 C 30,6 km/h (5 Bft)
24.12.2015 17:57 11,9 C 82 % 1011,4 hPa 0,0 l/m 18,8 km/h (3 Bft) S-SW 204 0 min 0 W/m 8,9 C 6,1 C 29,0 km/h (5 Bft)
24.12.2015 18:00 11,9 C 82 % 1011,3 hPa 0,0 l/m 16,6 km/h (3 Bft) S-SO 154 0 min 0 W/m 8,9 C 6,8 C 27,4 km/h (5 Bft)
24.12.2015 18:03 11,9 C 82 % 1011,3 hPa 0,0 l/m 17,5 km/h (3 Bft) SW 226 0 min 0 W/m 8,9 C 6,5 C 38,6 km/h (6 Bft)
24.12.2015 18:06 11,9 C 82 % 1011,4 hPa 0,0 l/m 15,6 km/h (3 Bft) S-SW 200 0 min 0 W/m 8,9 C 7,2 C 35,4 km/h (5 Bft)
24.12.2015 18:09 11,9 C 82 % 1011,3 hPa 0,0 l/m 16,1 km/h (3 Bft) S-SO 155 0 min 0 W/m 8,9 C 7,0 C 27,4 km/h (5 Bft)
24.12.2015 18:12 12,0 C 82 % 1011,3 hPa 0,0 l/m 14,8 km/h (3 Bft) S-SW 192 0 min 0 W/m 9,0 C 7,6 C 27,4 km/h (5 Bft)
24.12.2015 18:15 11,9 C 82 % 1011,2 hPa 0,0 l/m 16,3 km/h (3 Bft) SW 223 0 min 0 W/m 8,9 C 7,0 C 29,0 km/h (5 Bft)
24.12.2015 18:18 12,0 C 81 % 1011,2 hPa 0,0 l/m 19,3 km/h (3 Bft) S 177 0 min 0 W/m 8,8 C 6,1 C 35,4 km/h (5 Bft)
24.12.2015 18:21 12,0 C 81 % 1011,3 hPa 0,0 l/m 16,2 km/h (3 Bft) SW 217 0 min 0 W/m 8,8 C 7,1 C 30,6 km/h (5 Bft)
24.12.2015 18:24 12,0 C 81 % 1011,3 hPa 0,0 l/m 16,4 km/h (3 Bft) S-SO 162 0 min 0 W/m 8,8 C 7,0 C 25,7 km/h (4 Bft)
24.12.2015 18:27 12,1 C 81 % 1011,2 hPa 0,0 l/m 19,0 km/h (3 Bft) W-SW 247 0 min 0 W/m 8,9 C 6,3 C 33,8 km/h (5 Bft)
24.12.2015 18:30 12,1 C 81 % 1011,3 hPa 0,0 l/m 16,0 km/h (3 Bft) S 175 0 min 0 W/m 8,9 C 7,3 C 29,0 km/h (5 Bft)
24.12.2015 18:33 12,1 C 81 % 1011,2 hPa 0,0 l/m 18,3 km/h (3 Bft) S-SW 195 0 min 0 W/m 8,9 C 6,5 C 33,8 km/h (5 Bft)
24.12.2015 18:36 12,1 C 81 % 1011,1 hPa 0,0 l/m 16,9 km/h (3 Bft) S 187 0 min 0 W/m 8,9 C 7,0 C 30,6 km/h (5 Bft)
24.12.2015 18:39 12,1 C 81 % 1011,2 hPa 0,0 l/m 15,5 km/h (3 Bft) S 188 0 min 0 W/m 8,9 C 7,5 C 24,1 km/h (4 Bft)
24.12.2015 18:42 12,1 C 81 % 1011,1 hPa 0,0 l/m 17,0 km/h (3 Bft) SO 142 0 min 0 W/m 8,9 C 7,0 C 29,0 km/h (5 Bft)
24.12.2015 18:45 12,1 C 81 % 1011,1 hPa 0,0 l/m 15,6 km/h (3 Bft) S-SW 194 0 min 0 W/m 8,9 C 7,5 C 20,9 km/h (4 Bft)
24.12.2015 18:48 12,1 C 81 % 1011,2 hPa 0,0 l/m 16,5 km/h (3 Bft) S-SW 203 0 min 0 W/m 8,9 C 7,1 C 37,0 km/h (5 Bft)
24.12.2015 18:51 12,0 C 81 % 1011,2 hPa 0,0 l/m 17,9 km/h (3 Bft) S-SO 162 0 min 0 W/m 8,8 C 6,5 C 30,6 km/h (5 Bft)
24.12.2015 18:54 12,1 C 81 % 1011,2 hPa 0,0 l/m 18,6 km/h (3 Bft) W 264 0 min 0 W/m 8,9 C 6,4 C 32,2 km/h (5 Bft)
24.12.2015 18:57 12,1 C 81 % 1011,2 hPa 0,0 l/m 19,8 km/h (3 Bft) SW 232 0 min 0 W/m 8,9 C 6,1 C 30,6 km/h (5 Bft)
24.12.2015 19:00 12,2 C 80 % 1011,2 hPa 0,0 l/m 18,6 km/h (3 Bft) S-SW 200 0 min 0 W/m 8,9 C 6,6 C 38,6 km/h (6 Bft)
24.12.2015 19:03 12,2 C 80 % 1011,1 hPa 0,0 l/m 18,0 km/h (3 Bft) SW 221 0 min 0 W/m 8,9 C 6,7 C 27,4 km/h (5 Bft)
24.12.2015 19:06 12,3 C 80 % 1011,2 hPa 0,0 l/m 21,3 km/h (4 Bft) SW 231 0 min 0 W/m 8,9 C 5,9 C 38,6 km/h (6 Bft)
24.12.2015 19:09 12,3 C 80 % 1011,2 hPa 0,0 l/m 20,3 km/h (4 Bft) W-SW 245 0 min 0 W/m 8,9 C 6,2 C 30,6 km/h (5 Bft)
24.12.2015 19:12 12,3 C 80 % 1011,2 hPa 0,0 l/m 20,7 km/h (4 Bft) S-SW 194 0 min 0 W/m 8,9 C 6,1 C 43,5 km/h (6 Bft)
24.12.2015 19:15 12,4 C 79 % 1011,3 hPa 0,0 l/m 19,9 km/h (4 Bft) SW 216 0 min 0 W/m 8,9 C 6,4 C 37,0 km/h (5 Bft)
24.12.2015 19:18 12,4 C 79 % 1011,3 hPa 0,0 l/m 21,1 km/h (4 Bft) SW 227 0 min 0 W/m 8,9 C 6,1 C 32,2 km/h (5 Bft)
24.12.2015 19:21 12,4 C 79 % 1011,3 hPa 0,0 l/m 18,9 km/h (3 Bft) W-SW 250 0 min 0 W/m 8,9 C 6,7 C 29,0 km/h (5 Bft)
24.12.2015 19:24 12,4 C 79 % 1011,3 hPa 0,0 l/m 20,8 km/h (4 Bft) SW 221 0 min 0 W/m 8,9 C 6,2 C 33,8 km/h (5 Bft)
24.12.2015 19:27 12,4 C 79 % 1011,4 hPa 0,0 l/m 20,2 km/h (4 Bft) W-SW 247 0 min 0 W/m 8,9 C 6,3 C 33,8 km/h (5 Bft)
24.12.2015 19:30 12,4 C 79 % 1011,3 hPa 0,0 l/m 22,0 km/h (4 Bft) S-SW 202 0 min 0 W/m 8,9 C 5,8 C 32,2 km/h (5 Bft)
24.12.2015 19:33 12,4 C 79 % 1011,4 hPa 0,0 l/m 21,6 km/h (4 Bft) W-SW 257 0 min 0 W/m 8,9 C 5,9 C 30,6 km/h (5 Bft)
24.12.2015 19:36 12,4 C 79 % 1011,4 hPa 0,0 l/m 27,2 km/h (5 Bft) SW 234 0 min 0 W/m 8,9 C 4,6 C 46,7 km/h (6 Bft)
24.12.2015 19:39 12,4 C 79 % 1011,4 hPa 0,0 l/m 24,1 km/h (4 Bft) SW 220 0 min 0 W/m 8,9 C 5,3 C 41,8 km/h (6 Bft)
24.12.2015 19:42 12,4 C 80 % 1011,5 hPa 0,0 l/m 22,6 km/h (4 Bft) S-SW 199 0 min 0 W/m 9,0 C 5,7 C 30,6 km/h (5 Bft)
24.12.2015 19:45 12,4 C 80 % 1011,4 hPa 0,0 l/m 23,3 km/h (4 Bft) S-SW 209 0 min 0 W/m 9,0 C 5,5 C 32,2 km/h (5 Bft)
24.12.2015 19:48 12,4 C 80 % 1011,5 hPa 0,0 l/m 24,3 km/h (4 Bft) SW 218 0 min 0 W/m 9,0 C 5,3 C 41,8 km/h (6 Bft)
24.12.2015 19:51 12,3 C 80 % 1011,5 hPa 0,0 l/m 25,7 km/h (4 Bft) SW 214 0 min 0 W/m 8,9 C 4,8 C 40,2 km/h (6 Bft)
24.12.2015 19:54 12,3 C 80 % 1011,6 hPa 0,0 l/m 25,3 km/h (4 Bft) W-SW 242 0 min 0 W/m 8,9 C 4,9 C 41,8 km/h (6 Bft)
24.12.2015 19:57 12,3 C 81 % 1011,7 hPa 0,0 l/m 27,2 km/h (5 Bft) SW 229 0 min 0 W/m 9,1 C 4,5 C 41,8 km/h (6 Bft)
24.12.2015 20:00 12,3 C 81 % 1011,6 hPa 0,0 l/m 27,3 km/h (5 Bft) SW 232 0 min 0 W/m 9,1 C 4,4 C 40,2 km/h (6 Bft)
24.12.2015 20:03 12,3 C 81 % 1011,6 hPa 0,0 l/m 25,3 km/h (4 Bft) SW 221 0 min 0 W/m 9,1 C 4,9 C 41,8 km/h (6 Bft)
24.12.2015 20:06 12,2 C 81 % 1011,9 hPa 0,0 l/m 26,2 km/h (4 Bft) S 180 0 min 0 W/m 9,0 C 4,5 C 45,1 km/h (6 Bft)
24.12.2015 20:09 12,2 C 81 % 1011,8 hPa 0,0 l/m 30,9 km/h (5 Bft) W-SW 240 0 min 0 W/m 9,0 C 3,6 C 41,8 km/h (6 Bft)
24.12.2015 20:12 12,2 C 82 % 1011,8 hPa 0,0 l/m 25,6 km/h (4 Bft) SW 225 0 min 0 W/m 9,2 C 4,7 C 38,6 km/h (6 Bft)
24.12.2015 20:15 12,2 C 82 % 1011,9 hPa 0,0 l/m 27,6 km/h (5 Bft) S-SW 199 0 min 0 W/m 9,2 C 4,2 C 41,8 km/h (6 Bft)
24.12.2015 20:18 12,2 C 82 % 1011,9 hPa 0,0 l/m 27,5 km/h (5 Bft) W-SW 238 0 min 0 W/m 9,2 C 4,3 C 38,6 km/h (6 Bft)
24.12.2015 20:21 12,2 C 82 % 1011,9 hPa 0,0 l/m 24,0 km/h (4 Bft) SW 236 0 min 0 W/m 9,2 C 5,1 C 33,8 km/h (5 Bft)
24.12.2015 20:24 12,1 C 82 % 1011,9 hPa 0,0 l/m 25,1 km/h (4 Bft) S 186 0 min 0 W/m 9,1 C 4,7 C 38,6 km/h (6 Bft)
24.12.2015 20:27 12,1 C 82 % 1011,9 hPa 0,0 l/m 25,0 km/h (4 Bft) S-SW 207 0 min 0 W/m 9,1 C 4,7 C 37,0 km/h (5 Bft)
24.12.2015 20:30 12,0 C 83 % 1012,1 hPa 0,0 l/m 25,8 km/h (4 Bft) W-SW 241 0 min 0 W/m 9,2 C 4,4 C 38,6 km/h (6 Bft)
24.12.2015 20:33 11,9 C 83 % 1011,9 hPa 0,0 l/m 28,2 km/h (5 Bft) SW 225 0 min 0 W/m 9,1 C 3,7 C 48,3 km/h (6 Bft)
24.12.2015 20:36 11,8 C 84 % 1012,0 hPa 0,0 l/m 25,0 km/h (4 Bft) SW 234 0 min 0 W/m 9,2 C 4,3 C 37,0 km/h (5 Bft)
24.12.2015 20:39 11,7 C 85 % 1012,0 hPa 0,0 l/m 23,8 km/h (4 Bft) SW 216 0 min 0 W/m 9,3 C 4,4 C 40,2 km/h (6 Bft)
24.12.2015 20:42 11,6 C 85 % 1012,0 hPa 0,0 l/m 29,7 km/h (5 Bft) S-SW 212 0 min 0 W/m 9,2 C 3,0 C 43,5 km/h (6 Bft)
24.12.2015 20:45 11,6 C 85 % 1012,0 hPa 0,0 l/m 29,2 km/h (5 Bft) SW 234 0 min 0 W/m 9,2 C 3,1 C 45,1 km/h (6 Bft)
24.12.2015 20:48 11,6 C 84 % 1012,2 hPa 0,0 l/m 26,8 km/h (4 Bft) SW 231 0 min 0 W/m 9,0 C 3,6 C 43,5 km/h (6 Bft)
24.12.2015 20:51 11,6 C 84 % 1012,4 hPa 0,0 l/m 30,5 km/h (5 Bft) S-SW 202 0 min 0 W/m 9,0 C 2,8 C 43,5 km/h (6 Bft)
24.12.2015 20:54 11,6 C 84 % 1012,5 hPa 0,0 l/m 28,0 km/h (5 Bft) SW 227 0 min 0 W/m 9,0 C 3,3 C 43,5 km/h (6 Bft)
24.12.2015 20:57 11,6 C 84 % 1012,5 hPa 0,0 l/m 27,0 km/h (5 Bft) SW 214 0 min 0 W/m 9,0 C 3,5 C 41,8 km/h (6 Bft)
24.12.2015 21:00 11,6 C 84 % 1012,6 hPa 0,0 l/m 26,8 km/h (4 Bft) S-SW 203 0 min 0 W/m 9,0 C 3,6 C 37,0 km/h (5 Bft)
24.12.2015 21:03 11,5 C 84 % 1012,6 hPa 0,0 l/m 28,4 km/h (5 Bft) SW 226 0 min 0 W/m 8,9 C 3,1 C 35,4 km/h (5 Bft)
24.12.2015 21:06 11,5 C 84 % 1012,5 hPa 0,0 l/m 28,4 km/h (5 Bft) SW 217 0 min 0 W/m 8,9 C 3,1 C 48,3 km/h (6 Bft)
24.12.2015 21:09 11,4 C 84 % 1012,5 hPa 0,0 l/m 27,6 km/h (5 Bft) S-SW 209 0 min 0 W/m 8,8 C 3,1 C 41,8 km/h (6 Bft)
24.12.2015 21:12 11,3 C 84 % 1012,5 hPa 0,0 l/m 25,3 km/h (4 Bft) SW 218 0 min 0 W/m 8,7 C 3,5 C 35,4 km/h (5 Bft)
24.12.2015 21:15 11,3 C 84 % 1012,6 hPa 0,0 l/m 32,6 km/h (5 Bft) SW 224 0 min 0 W/m 8,7 C 2,0 C 45,1 km/h (6 Bft)
24.12.2015 21:18 11,3 C 85 % 1012,7 hPa 0,0 l/m 27,5 km/h (5 Bft) SW 217 0 min 0 W/m 8,9 C 3,0 C 40,2 km/h (6 Bft)
24.12.2015 21:21 11,3 C 85 % 1012,8 hPa 0,0 l/m 30,0 km/h (5 Bft) SW 219 0 min 0 W/m 8,9 C 2,5 C 45,1 km/h (6 Bft)
24.12.2015 21:24 11,3 C 85 % 1012,8 hPa 0,0 l/m 25,6 km/h (4 Bft) SW 229 0 min 0 W/m 8,9 C 3,4 C 35,4 km/h (5 Bft)
24.12.2015 21:27 11,2 C 85 % 1012,7 hPa 0,0 l/m 24,9 km/h (4 Bft) SW 227 0 min 0 W/m 8,8 C 3,5 C 40,2 km/h (6 Bft)
24.12.2015 21:30 11,2 C 85 % 1012,8 hPa 0,0 l/m 23,0 km/h (4 Bft) SW 222 0 min 0 W/m 8,8 C 4,0 C 40,2 km/h (6 Bft)
24.12.2015 21:33 11,2 C 85 % 1012,8 hPa 0,0 l/m 24,0 km/h (4 Bft) SW 229 0 min 0 W/m 8,8 C 3,7 C 35,4 km/h (5 Bft)
24.12.2015 21:36 11,1 C 86 % 1012,9 hPa 0,0 l/m 22,1 km/h (4 Bft) W-SW 255 0 min 0 W/m 8,8 C 4,1 C 35,4 km/h (5 Bft)
24.12.2015 21:39 11,1 C 85 % 1012,9 hPa 0,0 l/m 24,9 km/h (4 Bft) S-SW 207 0 min 0 W/m 8,7 C 3,3 C 40,2 km/h (6 Bft)
24.12.2015 21:42 11,0 C 85 % 1012,9 hPa 0,0 l/m 23,5 km/h (4 Bft) SW 226 0 min 0 W/m 8,6 C 3,6 C 37,0 km/h (5 Bft)
24.12.2015 21:45 11,0 C 86 % 1013,0 hPa 0,0 l/m 26,4 km/h (4 Bft) S-SW 204 0 min 0 W/m 8,7 C 2,8 C 37,0 km/h (5 Bft)
24.12.2015 21:48 11,0 C 85 % 1013,0 hPa 0,0 l/m 25,9 km/h (4 Bft) SW 234 0 min 0 W/m 8,6 C 3,0 C 35,4 km/h (5 Bft)
24.12.2015 21:51 10,9 C 85 % 1013,1 hPa 0,0 l/m 27,1 km/h (5 Bft) S-SW 196 0 min 0 W/m 8,5 C 2,5 C 40,2 km/h (6 Bft)
24.12.2015 21:54 10,9 C 85 % 1013,0 hPa 0,0 l/m 26,4 km/h (4 Bft) W-SW 240 0 min 0 W/m 8,5 C 2,7 C 38,6 km/h (6 Bft)
24.12.2015 21:57 10,9 C 85 % 1013,0 hPa 0,0 l/m 27,3 km/h (5 Bft) SW 220 0 min 0 W/m 8,5 C 2,5 C 37,0 km/h (5 Bft)
24.12.2015 22:00 10,9 C 84 % 1013,1 hPa 0,0 l/m 28,0 km/h (5 Bft) S-SW 207 0 min 0 W/m 8,3 C 2,3 C 41,8 km/h (6 Bft)
24.12.2015 22:03 10,9 C 84 % 1013,1 hPa 0,0 l/m 27,3 km/h (5 Bft) SW 224 0 min 0 W/m 8,3 C 2,5 C 35,4 km/h (5 Bft)
24.12.2015 22:06 10,9 C 84 % 1013,2 hPa 0,0 l/m 26,7 km/h (4 Bft) SW 234 0 min 0 W/m 8,3 C 2,6 C 40,2 km/h (6 Bft)
24.12.2015 22:09 10,9 C 83 % 1013,2 hPa 0,0 l/m 27,5 km/h (5 Bft) S-SW 207 0 min 0 W/m 8,1 C 2,5 C 41,8 km/h (6 Bft)
24.12.2015 22:12 10,9 C 83 % 1013,2 hPa 0,0 l/m 28,2 km/h (5 Bft) S-SW 209 0 min 0 W/m 8,1 C 2,3 C 41,8 km/h (6 Bft)
24.12.2015 22:15 10,9 C 83 % 1013,3 hPa 0,0 l/m 27,4 km/h (5 Bft) W-SW 246 0 min 0 W/m 8,1 C 2,5 C 35,4 km/h (5 Bft)
24.12.2015 22:18 10,9 C 82 % 1013,3 hPa 0,0 l/m 24,6 km/h (4 Bft) SW 234 0 min 0 W/m 7,9 C 3,2 C 40,2 km/h (6 Bft)
24.12.2015 22:21 10,9 C 83 % 1013,3 hPa 0,0 l/m 26,0 km/h (4 Bft) SW 230 0 min 0 W/m 8,1 C 2,8 C 37,0 km/h (5 Bft)
24.12.2015 22:24 10,8 C 82 % 1013,3 hPa 0,0 l/m 28,9 km/h (5 Bft) W-SW 238 0 min 0 W/m 7,9 C 2,0 C 38,6 km/h (6 Bft)
24.12.2015 22:27 10,9 C 82 % 1013,3 hPa 0,0 l/m 26,3 km/h (4 Bft) SW 220 0 min 0 W/m 7,9 C 2,7 C 38,6 km/h (6 Bft)
24.12.2015 22:30 10,9 C 82 % 1013,5 hPa 0,0 l/m 27,5 km/h (5 Bft) W-SW 243 0 min 0 W/m 7,9 C 2,5 C 41,8 km/h (6 Bft)
24.12.2015 22:33 10,9 C 82 % 1013,5 hPa 0,0 l/m 27,9 km/h (5 Bft) SW 225 0 min 0 W/m 7,9 C 2,4 C 46,7 km/h (6 Bft)
24.12.2015 22:36 10,9 C 82 % 1013,6 hPa 0,0 l/m 28,0 km/h (5 Bft) W-SW 257 0 min 0 W/m 7,9 C 2,3 C 48,3 km/h (6 Bft)
24.12.2015 22:39 10,9 C 82 % 1013,8 hPa 0,0 l/m 22,9 km/h (4 Bft) SW 215 0 min 0 W/m 7,9 C 3,6 C 35,4 km/h (5 Bft)
24.12.2015 22:42 10,9 C 82 % 1013,9 hPa 0,0 l/m 21,9 km/h (4 Bft) W-SW 238 0 min 0 W/m 7,9 C 3,9 C 35,4 km/h (5 Bft)
24.12.2015 22:45 10,8 C 82 % 1013,9 hPa 0,0 l/m 22,9 km/h (4 Bft) SW 226 0 min 0 W/m 7,9 C 3,5 C 37,0 km/h (5 Bft)
24.12.2015 22:48 10,8 C 82 % 1013,9 hPa 0,0 l/m 23,2 km/h (4 Bft) W-SW 243 0 min 0 W/m 7,9 C 3,4 C 41,8 km/h (6 Bft)
24.12.2015 22:51 10,7 C 82 % 1014,0 hPa 0,0 l/m 18,4 km/h (3 Bft) W-SW 248 0 min 0 W/m 7,8 C 4,7 C 32,2 km/h (5 Bft)
24.12.2015 22:54 10,7 C 82 % 1014,0 hPa 0,0 l/m 14,1 km/h (3 Bft) W-SW 254 0 min 0 W/m 7,8 C 6,4 C 25,7 km/h (4 Bft)
24.12.2015 22:57 10,5 C 82 % 1014,0 hPa 0,0 l/m 12,5 km/h (2 Bft) W-SW 240 0 min 0 W/m 7,6 C 6,8 C 20,9 km/h (4 Bft)
24.12.2015 23:00 10,4 C 83 % 1014,1 hPa 0,0 l/m 13,6 km/h (3 Bft) SW 217 0 min 0 W/m 7,6 C 6,2 C 25,7 km/h (4 Bft)
24.12.2015 23:03 10,3 C 83 % 1014,0 hPa 0,0 l/m 11,7 km/h (2 Bft) S-SW 194 0 min 0 W/m 7,5 C 7,0 C 19,3 km/h (3 Bft)
24.12.2015 23:06 10,2 C 84 % 1014,0 hPa 0,0 l/m 13,2 km/h (3 Bft) W-SW 257 0 min 0 W/m 7,6 C 6,2 C 20,9 km/h (4 Bft)
24.12.2015 23:09 10,1 C 84 % 1014,1 hPa 0,0 l/m 13,9 km/h (3 Bft) S-SW 203 0 min 0 W/m 7,5 C 5,7 C 22,5 km/h (4 Bft)
24.12.2015 23:12 10,0 C 85 % 1014,1 hPa 0,0 l/m 14,3 km/h (3 Bft) W 261 0 min 0 W/m 7,6 C 5,4 C 25,7 km/h (4 Bft)
24.12.2015 23:15 9,9 C 85 % 1014,2 hPa 0,0 l/m 10,6 km/h (2 Bft) W 271 0 min 0 W/m 7,5 C 7,1 C 20,9 km/h (4 Bft)
24.12.2015 23:18 9,8 C 85 % 1014,3 hPa 0,0 l/m 14,2 km/h (3 Bft) W-SW 240 0 min 0 W/m 7,4 C 5,2 C 27,4 km/h (5 Bft)
24.12.2015 23:21 9,8 C 85 % 1014,3 hPa 0,0 l/m 13,3 km/h (3 Bft) W-SW 242 0 min 0 W/m 7,4 C 5,6 C 22,5 km/h (4 Bft)
24.12.2015 23:24 9,7 C 85 % 1014,3 hPa 0,0 l/m 15,3 km/h (3 Bft) SW 235 0 min 0 W/m 7,3 C 4,6 C 25,7 km/h (4 Bft)
24.12.2015 23:27 9,7 C 85 % 1014,4 hPa 0,0 l/m 13,2 km/h (3 Bft) W 260 0 min 0 W/m 7,3 C 5,6 C 20,9 km/h (4 Bft)
24.12.2015 23:30 9,6 C 86 % 1014,5 hPa 0,0 l/m 13,3 km/h (3 Bft) W 269 0 min 0 W/m 7,4 C 5,4 C 22,5 km/h (4 Bft)
24.12.2015 23:33 9,6 C 86 % 1014,5 hPa 0,0 l/m 12,2 km/h (2 Bft) SW 221 0 min 0 W/m 7,4 C 6,0 C 24,1 km/h (4 Bft)
24.12.2015 23:36 9,5 C 86 % 1014,5 hPa 0,0 l/m 12,4 km/h (2 Bft) SW 228 0 min 0 W/m 7,3 C 5,7 C 20,9 km/h (4 Bft)
24.12.2015 23:39 9,5 C 87 % 1014,5 hPa 0,0 l/m 15,9 km/h (3 Bft) W-SW 242 0 min 0 W/m 7,4 C 4,2 C 25,7 km/h (4 Bft)
24.12.2015 23:42 9,4 C 87 % 1014,4 hPa 0,0 l/m 18,2 km/h (3 Bft) W-SW 238 0 min 0 W/m 7,3 C 3,1 C 29,0 km/h (5 Bft)
24.12.2015 23:45 9,4 C 87 % 1014,4 hPa 0,0 l/m 16,7 km/h (3 Bft) S-SW 213 0 min 0 W/m 7,3 C 3,7 C 27,4 km/h (5 Bft)
24.12.2015 23:48 9,4 C 87 % 1014,5 hPa 0,0 l/m 14,1 km/h (3 Bft) W-SW 251 0 min 0 W/m 7,3 C 4,8 C 22,5 km/h (4 Bft)
24.12.2015 23:51 9,3 C 87 % 1014,5 hPa 0,0 l/m 18,1 km/h (3 Bft) S 189 0 min 0 W/m 7,2 C 3,0 C 32,2 km/h (5 Bft)
24.12.2015 23:54 9,3 C 85 % 1014,7 hPa 0,0 l/m 16,1 km/h (3 Bft) S-SW 209 0 min 0 W/m 6,9 C 3,8 C 25,7 km/h (4 Bft)
24.12.2015 23:57 9,3 C 85 % 1014,7 hPa 0,0 l/m 17,6 km/h (3 Bft) SW 221 0 min 0 W/m 6,9 C 3,2 C 27,4 km/h (5 Bft)
_ Min-Zeit 01:00 19:15 18:36 - 04:15 - - - - 00:00 08:00 02:15
Minimum _ 6,4 C 79 % 1011,1 hPa - 8,0 km/h (2 Bft) - - - - 5,2 C 1,7 C 16,1 km/h (3 Bft)
_ Max-Zeit 19:42 03:00 00:15 00:00 21:15 - - 09:30 12:15 17:30 16:09 20:33
Maximum _ 12,5 C 94 % 1022,4 hPa 0,0 l/m 32,6 km/h
SW (5 Bft)
- - 15 min 146 W/m 9,3 C 8,0 C 48,3 km/h
SW (6 Bft)
Durchschnitt _ 9,0 C 88 % 1016,2 hPa #0,0 l/m 14,9 km/h (3 Bft) S - #2:00 h 54 W/m 7,2 C 4,5 C 27,6 km/h (5 Bft)
copyright by Holger Just